createdAt,value
2023-02-14T00:03:17.600Z,70.18
2023-02-14T00:08:18.967Z,70.52
2023-02-14T00:13:20.345Z,70.64
2023-02-14T00:18:21.678Z,70.65
2023-02-14T00:23:23.051Z,70.40
2023-02-14T00:28:24.433Z,70.78
2023-02-14T00:33:25.747Z,71.35
2023-02-14T00:38:27.052Z,71.32
2023-02-14T00:43:28.440Z,71.26
2023-02-14T00:48:29.831Z,71.81
2023-02-14T00:53:31.274Z,71.63
2023-02-14T00:58:32.759Z,72.06
2023-02-14T01:03:35.008Z,72.35
2023-02-14T01:08:36.344Z,72.63
2023-02-14T01:13:38.027Z,72.90
2023-02-14T01:18:40.639Z,73.34
2023-02-14T01:29:03.393Z,73.67
2023-02-14T01:50:13.604Z,74.21
2023-02-14T01:55:22.063Z,73.72
2023-02-14T02:00:42.676Z,74.10
2023-02-14T02:05:48.768Z,74.09
2023-02-14T02:10:50.168Z,74.27
2023-02-14T02:15:54.809Z,74.02
2023-02-14T02:21:15.685Z,73.54
2023-02-14T02:26:32.058Z,73.76
2023-02-14T02:32:04.062Z,74.12
2023-02-14T02:37:26.714Z,74.44
2023-02-14T02:42:45.355Z,74.54
2023-02-14T02:48:10.622Z,74.91
2023-02-14T02:53:29.135Z,75.42
2023-02-14T02:58:38.994Z,75.50
2023-02-14T03:04:02.833Z,75.82
2023-02-14T03:09:29.988Z,76.35
2023-02-14T03:14:41.381Z,76.79
2023-02-14T03:20:10.637Z,77.18
2023-02-14T03:25:28.234Z,77.52
2023-02-14T03:30:42.006Z,77.46
2023-02-14T03:35:54.716Z,77.83
2023-02-14T03:41:01.536Z,76.91
2023-02-14T03:46:17.934Z,76.90
2023-02-14T03:51:22.362Z,76.91
2023-02-14T03:56:36.314Z,77.40
2023-02-14T04:01:47.005Z,77.17
2023-02-14T04:06:48.497Z,77.30
2023-02-14T04:11:50.497Z,76.82
2023-02-14T04:17:10.370Z,76.76
2023-02-14T04:22:12.026Z,76.53
2023-02-14T04:27:13.499Z,76.47
2023-02-14T04:32:20.538Z,76.14
2023-02-14T04:37:21.984Z,76.29
2023-02-14T04:42:23.340Z,76.03
2023-02-14T04:47:25.039Z,76.19
2023-02-14T04:52:26.616Z,77.20
2023-02-14T04:57:28.075Z,76.61
2023-02-14T05:02:29.364Z,76.93
2023-02-14T05:07:30.734Z,76.99
2023-02-14T05:12:32.374Z,77.04
2023-02-14T05:17:33.670Z,77.70
2023-02-14T05:22:35.070Z,78.06
2023-02-14T05:27:36.477Z,78.20
2023-02-14T05:32:37.862Z,78.41
2023-02-14T05:37:39.260Z,78.16
2023-02-14T05:42:40.586Z,78.71
2023-02-14T05:47:41.941Z,78.78
2023-02-14T05:52:43.632Z,79.08
2023-02-14T05:57:45.003Z,79.59
2023-02-14T06:02:46.348Z,79.58
2023-02-14T06:07:50.851Z,79.25
2023-02-14T06:12:53.857Z,79.88
2023-02-14T06:17:56.820Z,79.15
2023-02-14T06:22:58.538Z,78.70
2023-02-14T06:27:59.945Z,79.06
2023-02-14T06:33:01.332Z,79.14
2023-02-14T06:38:02.816Z,78.89
2023-02-14T06:43:04.592Z,78.75
2023-02-14T06:48:06.070Z,78.52
2023-02-14T06:53:07.397Z,78.54
2023-02-14T06:58:08.850Z,78.53
2023-02-14T07:03:10.296Z,78.25
2023-02-14T07:08:11.671Z,77.73
2023-02-14T07:13:13.343Z,76.86
2023-02-14T07:18:14.716Z,77.38
2023-02-14T07:23:16.097Z,75.82
2023-02-14T07:28:17.532Z,75.93
2023-02-14T07:33:19.222Z,76.20
2023-02-14T07:38:20.580Z,75.53
2023-02-14T07:43:21.877Z,75.34
2023-02-14T07:48:23.359Z,75.48
2023-02-14T07:53:24.921Z,75.21
2023-02-14T07:58:26.813Z,75.07
2023-02-14T08:03:28.194Z,76.05
2023-02-14T08:08:31.618Z,76.42
2023-02-14T08:13:32.947Z,75.75
2023-02-14T08:18:39.929Z,76.27
2023-02-14T08:23:41.297Z,75.99
2023-02-14T08:28:43.136Z,75.87
2023-02-14T08:33:45.425Z,75.45
2023-02-14T08:38:50.120Z,75.61
2023-02-14T08:43:51.920Z,75.34
2023-02-14T08:48:54.339Z,74.98
2023-02-14T08:53:56.097Z,75.09
2023-02-14T08:58:57.442Z,75.46
2023-02-14T09:03:59.065Z,75.55
2023-02-14T09:09:02.485Z,75.89
2023-02-14T09:14:04.020Z,76.64
2023-02-14T09:19:05.653Z,77.02
2023-02-14T09:24:07.215Z,75.85
2023-02-14T09:29:08.643Z,76.09
2023-02-14T09:34:28.622Z,75.80
2023-02-14T09:39:29.990Z,75.28
2023-02-14T09:45:10.724Z,76.69
2023-02-14T09:50:36.442Z,77.82
2023-02-14T09:55:53.930Z,77.28
2023-02-14T10:01:02.573Z,76.38
2023-02-14T10:06:21.080Z,76.30
2023-02-14T10:11:24.808Z,76.51
2023-02-14T10:16:32.559Z,75.91
2023-02-14T10:21:45.938Z,75.90
2023-02-14T10:26:50.790Z,75.85
2023-02-14T10:32:00.339Z,75.14
2023-02-14T10:37:37.404Z,74.36
2023-02-14T10:42:57.517Z,74.04
2023-02-14T10:48:22.434Z,73.98
2023-02-14T10:53:45.126Z,73.48
2023-02-14T10:58:50.364Z,72.84
2023-02-14T11:03:58.452Z,72.48
2023-02-14T11:08:59.914Z,71.98
2023-02-14T11:14:23.660Z,71.29
2023-02-14T11:19:37.266Z,71.78
2023-02-14T11:24:41.979Z,71.59
2023-02-14T11:29:45.330Z,71.68
2023-02-14T11:35:20.006Z,71.16
2023-02-14T11:40:33.070Z,70.12
2023-02-14T11:45:37.554Z,70.20
2023-02-14T11:50:39.190Z,69.32
2023-02-14T11:55:41.080Z,69.54
2023-02-14T12:00:52.029Z,69.14
2023-02-14T12:06:00.326Z,68.40
2023-02-14T12:11:18.259Z,68.44
2023-02-14T12:16:28.291Z,68.44
2023-02-14T12:21:59.414Z,68.05
2023-02-14T12:27:09.985Z,67.58
2023-02-14T12:32:26.933Z,67.56
2023-02-14T12:37:42.605Z,67.67
2023-02-14T12:43:09.354Z,66.94
2023-02-14T12:48:30.240Z,67.24
2023-02-14T12:53:37.519Z,66.20
2023-02-14T12:59:07.786Z,65.68
2023-02-14T13:04:38.956Z,66.26
2023-02-14T13:10:00.176Z,66.17
2023-02-14T13:15:10.824Z,65.96
2023-02-14T13:20:15.640Z,65.49
2023-02-14T13:25:36.639Z,64.94
2023-02-14T13:30:38.629Z,65.54
2023-02-14T13:35:41.220Z,65.84
2023-02-14T13:40:43.084Z,65.50
2023-02-14T13:45:51.861Z,64.46
2023-02-14T13:51:05.606Z,64.67
2023-02-14T13:56:13.323Z,61.47
2023-02-14T14:01:39.703Z,57.69
2023-02-14T14:07:02.536Z,57.05
2023-02-14T14:12:03.928Z,53.81
2023-02-14T14:17:19.581Z,47.28
2023-02-14T14:22:22.178Z,38.11
2023-02-14T14:27:31.889Z,32.11
2023-02-14T14:32:38.756Z,29.67
2023-02-14T14:37:49.240Z,27.98
2023-02-14T14:42:51.342Z,27.40
2023-02-14T14:47:57.772Z,26.76
2023-02-14T14:53:03.079Z,26.81
2023-02-14T14:58:08.933Z,26.64
2023-02-14T15:03:17.186Z,26.40
2023-02-14T15:08:36.572Z,27.08
2023-02-14T15:13:50.809Z,29.24
2023-02-14T15:18:59.450Z,32.90
2023-02-14T15:24:02.941Z,35.32
2023-02-14T15:29:07.441Z,42.01
2023-02-14T15:34:10.277Z,45.97
2023-02-14T15:39:15.568Z,49.69
2023-02-14T15:44:23.325Z,51.76
2023-02-14T15:49:33.663Z,53.15
2023-02-14T15:54:43.178Z,54.71
2023-02-14T15:59:44.551Z,55.78
2023-02-14T16:04:46.074Z,57.23
2023-02-14T16:09:48.273Z,58.45
2023-02-14T16:15:02.435Z,60.07
2023-02-14T16:20:34.532Z,60.90
2023-02-14T16:25:35.940Z,62.21
2023-02-14T16:30:38.824Z,62.96
2023-02-14T16:35:40.326Z,63.72
2023-02-14T16:40:44.917Z,64.66
2023-02-14T16:45:47.431Z,65.95
2023-02-14T16:50:49.003Z,66.41
2023-02-14T16:55:53.165Z,67.15
2023-02-14T17:00:54.551Z,68.25
2023-02-14T17:05:58.418Z,68.23
2023-02-14T17:11:02.288Z,68.25
2023-02-14T17:16:07.160Z,68.59
2023-02-14T17:21:09.412Z,68.95
2023-02-14T17:26:11.267Z,69.33
2023-02-14T17:31:13.396Z,69.39
2023-02-14T17:36:15.055Z,69.70
2023-02-14T17:41:22.314Z,69.87
2023-02-14T17:46:23.820Z,69.68
2023-02-14T17:51:25.278Z,69.57
2023-02-14T17:56:26.948Z,70.40
2023-02-14T18:01:32.816Z,71.77
2023-02-14T18:06:34.486Z,72.54
2023-02-14T18:11:39.754Z,72.64
2023-02-14T18:16:42.103Z,72.60
2023-02-14T18:21:45.098Z,73.33
2023-02-14T18:26:46.481Z,73.77
2023-02-14T18:31:47.909Z,73.90
2023-02-14T18:36:49.404Z,74.68
2023-02-14T18:41:50.692Z,75.16
2023-02-14T18:46:52.292Z,75.77
2023-02-14T18:51:54.715Z,75.59
2023-02-14T18:56:56.117Z,76.11
2023-02-14T19:01:57.488Z,75.94
2023-02-14T19:06:59.613Z,76.58
2023-02-14T19:12:01.007Z,76.19
2023-02-14T19:17:04.312Z,76.64
2023-02-14T19:22:06.020Z,77.22
2023-02-14T19:27:07.593Z,76.82
2023-02-14T19:32:08.983Z,76.97
2023-02-14T19:37:10.643Z,76.86
2023-02-14T19:42:12.008Z,77.52
2023-02-14T19:47:27.183Z,77.63
2023-02-14T19:52:32.514Z,78.42
2023-02-14T19:57:34.152Z,78.48
2023-02-14T20:02:38.106Z,78.51
2023-02-14T20:07:39.515Z,78.01
2023-02-14T20:12:41.650Z,78.49
2023-02-14T20:17:43.253Z,78.88
2023-02-14T20:22:47.813Z,79.11
2023-02-14T20:27:53.234Z,79.32
2023-02-14T20:32:54.599Z,78.98
2023-02-14T20:37:56.248Z,79.01
2023-02-14T20:42:58.103Z,78.71
2023-02-14T20:48:04.055Z,78.58
2023-02-14T20:53:05.480Z,78.55
2023-02-14T20:58:06.799Z,79.23
2023-02-14T21:03:08.470Z,78.98
2023-02-14T21:08:10.053Z,78.78
2023-02-14T21:13:11.454Z,78.37
2023-02-14T21:18:13.026Z,77.98
2023-02-14T21:23:14.765Z,78.23
2023-02-14T21:28:16.294Z,77.82
2023-02-14T21:33:18.077Z,77.78
2023-02-14T21:38:19.384Z,77.89
2023-02-14T21:43:20.729Z,78.17
2023-02-14T21:48:41.504Z,78.30
2023-02-14T21:53:43.288Z,78.19
2023-02-14T21:58:44.800Z,77.79
2023-02-14T22:03:46.288Z,77.88
2023-02-14T22:08:53.204Z,78.05
2023-02-14T22:13:59.299Z,78.56
2023-02-14T22:19:00.706Z,78.38
2023-02-14T22:24:02.252Z,78.39
2023-02-14T22:29:04.775Z,77.85
2023-02-14T22:34:08.822Z,77.80
2023-02-14T22:39:13.576Z,78.22
2023-02-14T22:44:15.408Z,78.25
2023-02-14T22:49:17.337Z,78.96
2023-02-14T22:54:18.702Z,78.71
2023-02-14T22:59:24.686Z,78.68
2023-02-14T23:04:29.291Z,78.26
2023-02-14T23:09:30.764Z,78.55
2023-02-14T23:14:50.704Z,78.93
2023-02-14T23:20:10.578Z,78.98
2023-02-14T23:25:12.339Z,78.94
2023-02-14T23:30:16.618Z,78.91
2023-02-14T23:35:18.075Z,78.98
2023-02-14T23:40:20.303Z,79.00
2023-02-14T23:45:37.145Z,79.01
2023-02-14T23:50:38.518Z,77.57
2023-02-14T23:55:39.886Z,77.32
